createdAt,value
2018-04-10T00:00:46.053Z,99683.48
2018-04-10T00:03:12.000Z,99682.56
2018-04-10T00:05:37.933Z,99689.89
2018-04-10T00:08:03.881Z,99688.16
2018-04-10T00:10:29.903Z,99690.80
2018-04-10T00:12:55.867Z,99693.94
2018-04-10T00:15:21.824Z,99689.31
2018-04-10T00:17:47.789Z,99694.69
2018-04-10T00:20:13.720Z,99692.31
2018-04-10T00:22:39.691Z,99692.52
2018-04-10T00:25:05.653Z,99690.39
2018-04-10T00:27:31.595Z,99688.00
2018-04-10T00:29:57.563Z,99687.25
2018-04-10T00:32:23.499Z,99685.19
2018-04-10T00:34:49.451Z,99688.50
2018-04-10T00:37:15.411Z,99694.45
2018-04-10T00:39:41.368Z,99692.47
2018-04-10T00:42:07.316Z,99697.19
2018-04-10T00:44:33.251Z,99701.15
2018-04-10T00:46:59.208Z,99698.67
2018-04-10T00:49:25.187Z,99697.33
2018-04-10T00:51:51.115Z,99694.95
2018-04-10T00:54:17.060Z,99698.65
2018-04-10T00:56:42.996Z,99697.33
2018-04-10T00:59:08.944Z,99696.94
2018-04-10T01:01:34.899Z,99694.04
2018-04-10T01:04:00.843Z,99696.92
2018-04-10T01:06:26.786Z,99694.09
2018-04-10T01:08:52.769Z,99696.48
2018-04-10T01:11:18.703Z,99697.39
2018-04-10T01:13:44.647Z,99692.45
2018-04-10T01:16:10.599Z,99694.34
2018-04-10T01:18:36.556Z,99684.75
2018-04-10T01:21:02.510Z,99692.21
2018-04-10T01:23:28.492Z,99696.73
2018-04-10T01:25:54.509Z,99692.31
2018-04-10T01:28:20.487Z,99691.56
2018-04-10T01:30:46.415Z,99690.00
2018-04-10T01:33:12.376Z,99695.20
2018-04-10T01:35:38.311Z,99695.61
2018-04-10T01:38:04.243Z,99696.69
2018-04-10T01:40:30.241Z,99697.44
2018-04-10T01:42:56.195Z,99692.38
2018-04-10T01:45:22.169Z,99694.70
2018-04-10T01:47:48.099Z,99686.13
2018-04-10T01:50:14.051Z,99686.53
2018-04-10T01:52:40.018Z,99688.25
2018-04-10T01:55:05.978Z,99680.91
2018-04-10T01:57:31.923Z,99686.43
2018-04-10T01:59:57.872Z,99682.98
2018-04-10T02:02:23.822Z,99682.73
2018-04-10T02:04:49.748Z,99674.55
2018-04-10T02:07:15.696Z,99671.66
2018-04-10T02:09:41.639Z,99674.66
2018-04-10T02:12:07.582Z,99679.93
2018-04-10T02:14:33.623Z,99681.27
2018-04-10T02:16:59.572Z,99687.05
2018-04-10T02:19:25.528Z,99688.67
2018-04-10T02:21:51.530Z,99688.87
2018-04-10T02:24:17.508Z,99691.41
2018-04-10T02:26:43.443Z,99693.38
2018-04-10T02:29:09.505Z,99702.13
2018-04-10T02:31:35.471Z,99703.03
2018-04-10T02:34:01.407Z,99709.31
2018-04-10T02:36:27.476Z,99700.95
2018-04-10T02:38:53.424Z,99693.94
2018-04-10T02:41:19.351Z,99690.65
2018-04-10T02:43:45.371Z,99689.93
2018-04-10T02:46:11.304Z,99682.16
2018-04-10T02:48:37.263Z,99680.74
2018-04-10T02:51:03.207Z,99681.60
2018-04-10T02:53:29.172Z,99681.97
2018-04-10T02:55:55.109Z,99683.64
2018-04-10T02:58:21.101Z,99687.70
2018-04-10T03:00:47.032Z,99684.70
2018-04-10T03:03:13.025Z,99681.82
2018-04-10T03:05:38.933Z,99680.69
2018-04-10T03:08:04.877Z,99673.28
2018-04-10T03:10:30.816Z,99669.50
2018-04-10T03:12:56.762Z,99670.15
2018-04-10T03:15:22.694Z,99675.27
2018-04-10T03:17:48.627Z,99682.83
2018-04-10T03:20:14.569Z,99688.16
2018-04-10T03:22:40.507Z,99688.34
2018-04-10T03:25:06.448Z,99696.33
2018-04-10T03:27:32.442Z,99695.11
2018-04-10T03:29:58.378Z,99692.22
2018-04-10T03:32:24.320Z,99699.48
2018-04-10T03:34:50.267Z,99696.52
2018-04-10T03:37:16.220Z,99694.05
2018-04-10T03:39:42.175Z,99698.25
2018-04-10T03:42:08.195Z,99697.50
2018-04-10T03:44:34.151Z,99697.03
2018-04-10T03:47:00.092Z,99697.75
2018-04-10T03:49:26.031Z,99703.92
2018-04-10T03:51:51.983Z,99706.84
2018-04-10T03:54:17.965Z,99715.01
2018-04-10T03:56:43.901Z,99720.95
2018-04-10T03:59:09.900Z,99711.96
2018-04-10T04:01:35.839Z,99713.79
2018-04-10T04:04:01.789Z,99709.57
2018-04-10T04:06:27.729Z,99701.81
2018-04-10T04:08:53.733Z,99702.36
2018-04-10T04:11:19.668Z,99698.67
2018-04-10T04:13:45.654Z,99699.07
2018-04-10T04:16:11.591Z,99700.98
2018-04-10T04:18:37.551Z,99698.41
2018-04-10T04:21:03.524Z,99703.03
2018-04-10T04:23:29.485Z,99705.25
2018-04-10T04:25:55.424Z,99699.69
2018-04-10T04:28:21.469Z,99704.45
2018-04-10T04:30:47.439Z,99702.97
2018-04-10T04:33:13.375Z,99702.32
2018-04-10T04:35:39.400Z,99699.27
2018-04-10T04:38:05.338Z,99704.96
2018-04-10T04:40:31.303Z,99697.41
2018-04-10T04:42:57.247Z,99694.61
2018-04-10T04:45:23.192Z,99693.70
2018-04-10T04:47:49.131Z,99702.93
2018-04-10T04:50:15.081Z,99692.67
2018-04-10T04:52:41.144Z,99696.84
2018-04-10T04:55:07.088Z,99694.06
2018-04-10T04:57:33.058Z,99693.80
2018-04-10T04:59:58.990Z,99696.69
2018-04-10T05:02:24.923Z,99698.56
2018-04-10T05:04:50.988Z,99702.48
2018-04-10T05:07:16.928Z,99706.78
2018-04-10T05:09:42.883Z,99707.45
2018-04-10T05:12:08.856Z,99703.39
2018-04-10T05:14:34.900Z,99710.23
2018-04-10T05:17:00.839Z,99711.95
2018-04-10T05:19:26.775Z,99715.57
2018-04-10T05:21:52.718Z,99716.73
2018-04-10T05:24:18.651Z,99718.61
2018-04-10T05:26:44.636Z,99716.73
2018-04-10T05:29:10.573Z,99718.77
2018-04-10T05:31:36.514Z,99724.05
2018-04-10T05:34:02.496Z,99729.11
2018-04-10T05:36:28.429Z,99735.11
2018-04-10T05:38:54.382Z,99734.55
2018-04-10T05:41:20.364Z,99731.50
2018-04-10T05:43:46.319Z,99736.72
2018-04-10T05:46:12.282Z,99736.13
2018-04-10T05:48:38.227Z,99733.64
2018-04-10T05:51:04.256Z,99737.59
2018-04-10T05:53:30.183Z,99743.02
2018-04-10T05:55:56.147Z,99741.20
2018-04-10T05:58:22.085Z,99748.81
2018-04-10T06:00:48.031Z,99755.60
2018-04-10T06:03:13.964Z,99758.65
2018-04-10T06:05:39.928Z,99764.39
2018-04-10T06:08:05.880Z,99772.81
2018-04-10T06:10:31.819Z,99769.20
2018-04-10T06:12:57.779Z,99769.62
2018-04-10T06:15:23.759Z,99779.98
2018-04-10T06:17:49.728Z,99777.44
2018-04-10T06:20:15.681Z,99784.28
2018-04-10T06:22:41.634Z,99782.55
2018-04-10T06:25:07.579Z,99784.44
2018-04-10T06:27:33.531Z,99787.48
2018-04-10T06:29:59.472Z,99790.97
2018-04-10T06:32:25.423Z,99794.09
2018-04-10T06:34:51.363Z,99797.58
2018-04-10T06:37:17.382Z,99802.09
2018-04-10T06:39:43.319Z,99805.24
2018-04-10T06:42:09.263Z,99797.73
2018-04-10T06:44:35.231Z,99798.80
2018-04-10T06:47:01.189Z,99801.59
2018-04-10T06:49:27.129Z,99805.61
2018-04-10T06:51:53.143Z,99811.80
2018-04-10T06:54:19.180Z,99815.05
2018-04-10T06:56:45.196Z,99806.30
2018-04-10T06:59:11.268Z,99817.37
2018-04-10T07:01:37.305Z,99821.48
2018-04-10T07:04:03.210Z,99825.09
2018-04-10T07:06:29.261Z,99820.06
2018-04-10T07:08:55.242Z,99822.55
2018-04-10T07:11:21.269Z,99828.74
2018-04-10T07:13:47.215Z,99835.03
2018-04-10T07:16:13.177Z,99842.44
2018-04-10T07:18:39.131Z,99833.52
2018-04-10T07:21:05.068Z,99836.50
2018-04-10T07:23:31.034Z,99833.92
2018-04-10T07:25:56.975Z,99837.73
2018-04-10T07:28:22.931Z,99838.28
2018-04-10T07:30:48.907Z,99838.44
2018-04-10T07:33:14.856Z,99840.25
2018-04-10T07:35:40.803Z,99852.27
2018-04-10T07:38:06.787Z,99856.82
2018-04-10T07:40:32.732Z,99853.27
2018-04-10T07:42:58.675Z,99851.30
2018-04-10T07:45:24.644Z,99851.73
2018-04-10T07:47:50.544Z,99856.73
2018-04-10T07:50:16.508Z,99855.09
2018-04-10T07:52:42.463Z,99851.89
2018-04-10T07:55:08.411Z,99856.17
2018-04-10T07:57:34.367Z,99850.06
2018-04-10T08:00:00.441Z,99847.74
2018-04-10T08:02:26.396Z,99846.67
2018-04-10T08:04:52.339Z,99848.91
2018-04-10T08:07:18.403Z,99841.80
2018-04-10T08:09:44.368Z,99848.66
2018-04-10T08:12:10.315Z,99851.73
2018-04-10T08:14:36.288Z,99860.72
2018-04-10T08:17:02.320Z,99866.41
2018-04-10T08:19:28.282Z,99868.86
2018-04-10T08:21:54.266Z,99870.93
2018-04-10T08:24:20.209Z,99873.92
2018-04-10T08:26:46.146Z,99878.29
2018-04-10T08:29:12.096Z,99880.77
2018-04-10T08:31:38.063Z,99881.69
2018-04-10T08:34:04.023Z,99890.92
2018-04-10T08:36:30.044Z,99884.13
2018-04-10T08:38:55.985Z,99881.08
2018-04-10T08:41:21.970Z,99883.31
2018-04-10T08:43:47.930Z,99886.71
2018-04-10T08:46:13.850Z,99893.30
2018-04-10T08:48:39.792Z,99892.39
2018-04-10T08:51:05.739Z,99889.76
2018-04-10T08:53:31.709Z,99892.11
2018-04-10T08:55:57.774Z,99882.91
2018-04-10T08:58:23.788Z,99886.52
2018-04-10T09:00:49.732Z,99889.85
2018-04-10T09:03:15.675Z,99887.68
2018-04-10T09:05:41.620Z,99890.48
2018-04-10T09:08:07.556Z,99893.63
2018-04-10T09:10:33.676Z,99891.39
2018-04-10T09:12:59.627Z,99885.80
2018-04-10T09:15:25.680Z,99887.12
2018-04-10T09:17:51.632Z,99885.95
2018-04-10T09:20:17.598Z,99882.50
2018-04-10T09:22:43.539Z,99879.26
2018-04-10T09:25:09.520Z,99878.45
2018-04-10T09:27:35.490Z,99883.91
2018-04-10T09:30:01.432Z,99885.80
2018-04-10T09:32:27.499Z,99889.09
2018-04-10T09:34:53.455Z,99892.05
2018-04-10T09:37:19.408Z,99886.52
2018-04-10T09:39:45.355Z,99888.03
2018-04-10T09:42:11.303Z,99889.25
2018-04-10T09:44:37.253Z,99890.16
2018-04-10T09:47:03.187Z,99886.61
2018-04-10T09:49:29.153Z,99885.86
2018-04-10T09:51:55.095Z,99886.27
2018-04-10T09:54:21.139Z,99877.03
2018-04-10T09:56:47.132Z,99886.61
2018-04-10T09:59:13.179Z,99885.36
2018-04-10T10:01:39.132Z,99882.81
2018-04-10T10:04:05.103Z,99888.19
2018-04-10T10:06:31.061Z,99884.70
2018-04-10T10:08:57.006Z,99885.04
2018-04-10T10:11:22.984Z,99882.47
2018-04-10T10:13:48.921Z,99885.86
2018-04-10T10:16:14.892Z,99886.17
2018-04-10T10:18:40.847Z,99889.56
2018-04-10T10:21:06.787Z,99890.89
2018-04-10T10:23:32.732Z,99893.94
2018-04-10T10:25:58.765Z,99889.47
2018-04-10T10:28:24.703Z,99893.47
2018-04-10T10:30:50.654Z,99895.19
2018-04-10T10:33:16.611Z,99889.81
2018-04-10T10:35:42.560Z,99895.51
2018-04-10T10:38:08.487Z,99900.47
2018-04-10T10:40:34.428Z,99900.06
2018-04-10T10:43:00.381Z,99900.47
2018-04-10T10:45:26.321Z,99900.47
2018-04-10T10:47:52.263Z,99899.81
2018-04-10T10:50:18.232Z,99893.72
2018-04-10T10:52:44.209Z,99898.65
2018-04-10T10:55:10.118Z,99898.65
2018-04-10T10:57:36.087Z,99900.81
2018-04-10T11:00:02.033Z,99901.13
2018-04-10T11:02:27.990Z,99902.89
2018-04-10T11:04:53.931Z,99899.50
2018-04-10T11:07:19.908Z,99898.02
2018-04-10T11:09:45.875Z,99893.66
2018-04-10T11:12:11.816Z,99892.49
2018-04-10T11:14:37.752Z,99887.97
2018-04-10T11:17:03.699Z,99884.91
2018-04-10T11:19:29.676Z,99884.16
2018-04-10T11:21:55.609Z,99879.39
2018-04-10T11:24:21.569Z,99884.07
2018-04-10T11:26:47.511Z,99874.58
2018-04-10T11:29:13.482Z,99870.38
2018-04-10T11:31:39.428Z,99866.00
2018-04-10T11:34:05.370Z,99867.73
2018-04-10T11:36:31.297Z,99869.30
2018-04-10T11:38:57.247Z,99874.98
2018-04-10T11:41:23.201Z,99874.67
2018-04-10T11:43:49.141Z,99870.30
2018-04-10T11:46:15.135Z,99867.26
2018-04-10T11:48:41.096Z,99865.84
2018-04-10T11:51:07.048Z,99856.42
2018-04-10T11:53:32.992Z,99856.61
2018-04-10T11:55:58.935Z,99848.44
2018-04-10T11:58:24.903Z,99844.54
2018-04-10T12:00:50.887Z,99842.25
2018-04-10T12:03:16.823Z,99844.89
2018-04-10T12:05:42.768Z,99838.23
2018-04-10T12:08:08.733Z,99830.12
2018-04-10T12:10:34.768Z,99827.07
2018-04-10T12:13:00.728Z,99828.23
2018-04-10T12:15:26.661Z,99829.81
2018-04-10T12:17:52.603Z,99833.10
2018-04-10T12:20:18.555Z,99832.04
2018-04-10T12:22:44.492Z,99832.35
2018-04-10T12:25:10.447Z,99831.53
2018-04-10T12:27:36.387Z,99836.81
2018-04-10T12:30:02.447Z,99835.59
2018-04-10T12:32:28.391Z,99833.36
2018-04-10T12:34:54.423Z,99828.58
2018-04-10T12:37:20.364Z,99837.47
2018-04-10T12:39:46.314Z,99836.00
2018-04-10T12:42:12.272Z,99834.89
2018-04-10T12:44:38.227Z,99831.50
2018-04-10T12:47:04.169Z,99828.89
2018-04-10T12:49:30.120Z,99830.72
2018-04-10T12:51:56.088Z,99827.02
2018-04-10T12:54:22.056Z,99824.13
2018-04-10T12:56:48.079Z,99823.67
2018-04-10T12:59:14.110Z,99817.48
2018-04-10T13:01:40.138Z,99819.87
2018-04-10T13:04:06.177Z,99815.97
2018-04-10T13:06:32.111Z,99813.45
2018-04-10T13:08:58.068Z,99812.60
2018-04-10T13:11:24.029Z,99813.83
2018-04-10T13:13:50.082Z,99807.81
2018-04-10T13:16:16.052Z,99802.19
2018-04-10T13:18:42.031Z,99800.15
2018-04-10T13:21:07.977Z,99798.02
2018-04-10T13:23:33.917Z,99792.95
2018-04-10T13:25:59.873Z,99792.28
2018-04-10T13:28:25.812Z,99785.17
2018-04-10T13:30:51.783Z,99785.27
2018-04-10T13:33:17.720Z,99784.26
2018-04-10T13:35:43.829Z,99773.80
2018-04-10T13:38:09.872Z,99768.95
2018-04-10T13:40:35.808Z,99770.80
2018-04-10T13:43:02.042Z,99777.86
2018-04-10T13:45:27.983Z,99772.53
2018-04-10T13:47:53.954Z,99773.09
2018-04-10T13:50:20.009Z,99772.98
2018-04-10T13:52:45.944Z,99766.48
2018-04-10T13:55:11.903Z,99769.84
2018-04-10T13:57:37.847Z,99768.31
2018-04-10T14:00:03.784Z,99761.46
2018-04-10T14:02:29.742Z,99766.80
2018-04-10T14:04:55.745Z,99765.57
2018-04-10T14:07:21.723Z,99756.73
2018-04-10T14:09:47.664Z,99754.00
2018-04-10T14:12:13.617Z,99749.64
2018-04-10T14:14:39.558Z,99749.94
2018-04-10T14:17:05.514Z,99745.80
2018-04-10T14:19:31.449Z,99743.13
2018-04-10T14:21:57.407Z,99746.69
2018-04-10T14:24:23.379Z,99748.51
2018-04-10T14:26:49.323Z,99750.72
2018-04-10T14:29:15.275Z,99748.73
2018-04-10T14:31:41.246Z,99744.28
2018-04-10T14:34:07.183Z,99749.09
2018-04-10T14:36:33.135Z,99743.05
2018-04-10T14:38:59.096Z,99742.91
2018-04-10T14:41:25.087Z,99740.42
2018-04-10T14:43:51.083Z,99740.51
2018-04-10T14:46:17.027Z,99736.98
2018-04-10T14:48:42.984Z,99732.22
2018-04-10T14:51:08.936Z,99734.05
2018-04-10T14:53:34.899Z,99733.14
2018-04-10T14:56:00.847Z,99726.87
2018-04-10T14:58:26.810Z,99725.97
2018-04-10T15:00:52.772Z,99721.48
2018-04-10T15:03:18.704Z,99712.76
2018-04-10T15:05:44.656Z,99715.27
2018-04-10T15:08:10.614Z,99718.10
2018-04-10T15:10:36.589Z,99721.00
2018-04-10T15:13:02.535Z,99728.48
2018-04-10T15:15:28.518Z,99718.59
2018-04-10T15:17:54.453Z,99718.13
2018-04-10T15:20:20.431Z,99722.55
2018-04-10T15:22:46.387Z,99721.30
2018-04-10T15:25:12.343Z,99712.81
2018-04-10T15:27:38.296Z,99716.27
2018-04-10T15:30:04.327Z,99708.75
2018-04-10T15:32:30.271Z,99710.67
2018-04-10T15:34:56.314Z,99706.39
2018-04-10T15:37:22.276Z,99705.93
2018-04-10T15:39:48.228Z,99703.80
2018-04-10T15:42:14.175Z,99700.60
2018-04-10T15:44:40.229Z,99687.88
2018-04-10T15:47:06.237Z,99692.61
2018-04-10T15:49:32.139Z,99687.78
2018-04-10T15:51:58.096Z,99686.22
2018-04-10T15:54:24.066Z,99688.75
2018-04-10T15:56:50.019Z,99680.78
2018-04-10T15:59:15.970Z,99682.91
2018-04-10T16:01:41.952Z,99682.81
2018-04-10T16:04:07.908Z,99687.78
2018-04-10T16:06:33.957Z,99688.86
2018-04-10T16:08:59.939Z,99686.20
2018-04-10T16:11:25.896Z,99688.84
2018-04-10T16:13:51.930Z,99682.81
2018-04-10T16:16:17.892Z,99684.38
2018-04-10T16:18:43.845Z,99678.30
2018-04-10T16:21:09.807Z,99675.11
2018-04-10T16:23:35.779Z,99681.30
2018-04-10T16:26:01.766Z,99677.30
2018-04-10T16:28:27.707Z,99675.62
2018-04-10T16:30:53.675Z,99674.70
2018-04-10T16:33:19.618Z,99678.81
2018-04-10T16:35:45.584Z,99676.17
2018-04-10T16:38:11.633Z,99676.33
2018-04-10T16:40:37.642Z,99683.10
2018-04-10T16:43:03.582Z,99688.99
2018-04-10T16:45:29.538Z,99694.05
2018-04-10T16:47:55.492Z,99690.86
2018-04-10T16:50:21.439Z,99691.88
2018-04-10T16:52:47.400Z,99691.47
2018-04-10T16:55:13.425Z,99689.66
2018-04-10T16:57:39.400Z,99693.59
2018-04-10T17:00:05.335Z,99697.68
2018-04-10T17:02:31.401Z,99699.45
2018-04-10T17:04:57.416Z,99704.57
2018-04-10T17:07:23.435Z,99704.22
2018-04-10T17:09:49.383Z,99708.53
2018-04-10T17:12:15.476Z,99707.98
2018-04-10T17:14:41.454Z,99702.89
2018-04-10T17:17:07.435Z,99699.62
2018-04-10T17:19:33.412Z,99696.51
2018-04-10T17:21:59.358Z,99699.13
2018-04-10T17:24:25.400Z,99700.45
2018-04-10T17:26:51.376Z,99699.50
2018-04-10T17:29:17.323Z,99716.31
2018-04-10T17:31:43.336Z,99723.63
2018-04-10T17:34:09.284Z,99743.09
2018-04-10T17:36:35.235Z,99754.48
2018-04-10T17:39:01.316Z,99765.00
2018-04-10T17:41:27.372Z,99776.98
2018-04-10T17:43:53.358Z,99791.50
2018-04-10T17:46:19.316Z,99792.52
2018-04-10T17:48:45.348Z,99794.25
2018-04-10T17:51:11.312Z,99794.76
2018-04-10T17:53:37.264Z,99792.03
2018-04-10T17:56:03.263Z,99778.00
2018-04-10T17:58:29.212Z,99768.61
2018-04-10T18:00:55.167Z,99761.66
2018-04-10T18:03:21.122Z,99759.69
2018-04-10T18:05:47.090Z,99753.83
2018-04-10T18:08:13.064Z,99751.41
2018-04-10T18:10:39.004Z,99751.35
2018-04-10T18:13:04.963Z,99757.70
2018-04-10T18:15:30.916Z,99756.63
2018-04-10T18:17:56.884Z,99750.55
2018-04-10T18:20:22.872Z,99743.38
2018-04-10T18:22:48.825Z,99745.32
2018-04-10T18:25:14.801Z,99755.00
2018-04-10T18:27:40.732Z,99758.11
2018-04-10T18:30:06.728Z,99756.84
2018-04-10T18:32:32.691Z,99758.55
2018-04-10T18:34:58.656Z,99762.02
2018-04-10T18:37:24.673Z,99771.02
2018-04-10T18:39:50.628Z,99776.80
2018-04-10T18:42:16.632Z,99788.33
2018-04-10T18:44:42.597Z,99801.63
2018-04-10T18:47:08.547Z,99810.20
2018-04-10T18:49:34.495Z,99810.00
2018-04-10T18:52:00.457Z,99816.13
2018-04-10T18:54:26.400Z,99829.25
2018-04-10T18:56:52.339Z,99840.11
2018-04-10T18:59:18.316Z,99858.70
2018-04-10T19:01:44.289Z,99867.38
2018-04-10T19:04:10.242Z,99876.61
2018-04-10T19:06:36.233Z,99882.12
2018-04-10T19:09:02.185Z,99879.48
2018-04-10T19:11:28.160Z,99886.20
2018-04-10T19:13:54.124Z,99899.41
2018-04-10T19:16:20.057Z,99912.98
2018-04-10T19:18:46.005Z,99922.72
2018-04-10T19:21:11.953Z,99934.70
2018-04-10T19:23:37.943Z,99944.44
2018-04-10T19:26:03.884Z,99960.59
2018-04-10T19:28:29.857Z,99974.14
2018-04-10T19:30:55.898Z,99982.38
2018-04-10T19:33:21.880Z,99983.55
2018-04-10T19:35:47.828Z,99987.83
2018-04-10T19:38:13.830Z,99984.84
2018-04-10T19:40:39.785Z,99981.22
2018-04-10T19:43:05.736Z,99982.30
2018-04-10T19:45:31.748Z,99989.80
2018-04-10T19:47:57.695Z,99993.11
2018-04-10T19:50:23.680Z,100003.89
2018-04-10T19:52:49.639Z,100003.58
2018-04-10T19:55:15.623Z,100001.69
2018-04-10T19:57:41.579Z,100003.55
2018-04-10T20:00:07.552Z,99998.86
2018-04-10T20:02:33.509Z,100003.95
2018-04-10T20:04:59.450Z,100001.91
2018-04-10T20:07:25.472Z,99999.53
2018-04-10T20:09:51.447Z,99996.31
2018-04-10T20:12:17.461Z,99989.72
2018-04-10T20:14:43.416Z,99976.92
2018-04-10T20:17:09.360Z,99969.72
2018-04-10T20:19:35.327Z,99965.95
2018-04-10T20:22:01.297Z,99960.73
2018-04-10T20:24:27.267Z,99961.45
2018-04-10T20:26:53.918Z,99961.70
2018-04-10T20:29:19.893Z,99963.84
2018-04-10T20:31:45.859Z,99961.35
2018-04-10T20:34:11.803Z,99959.56
2018-04-10T20:36:37.765Z,99954.84
2018-04-10T20:39:03.720Z,99949.81
2018-04-10T20:41:29.691Z,99953.12
2018-04-10T20:43:55.762Z,99943.40
2018-04-10T20:46:21.731Z,99942.80
2018-04-10T20:48:47.727Z,99935.95
2018-04-10T20:51:13.663Z,99937.02
2018-04-10T20:53:39.607Z,99938.42
2018-04-10T20:56:05.580Z,99936.34
2018-04-10T20:58:31.535Z,99941.89
2018-04-10T21:00:57.532Z,99950.16
2018-04-10T21:03:23.490Z,99949.77
2018-04-10T21:05:49.435Z,99942.91
2018-04-10T21:08:15.376Z,99946.20
2018-04-10T21:10:41.331Z,99949.19
2018-04-10T21:13:07.281Z,99944.22
2018-04-10T21:15:33.235Z,99950.16
2018-04-10T21:17:59.497Z,99947.67
2018-04-10T21:20:25.432Z,99947.08
2018-04-10T21:22:51.403Z,99951.85
2018-04-10T21:25:17.391Z,99959.87
2018-04-10T21:27:43.343Z,99969.17
2018-04-10T21:30:09.307Z,99971.51
2018-04-10T21:32:35.268Z,99976.73
2018-04-10T21:35:01.211Z,99968.27
2018-04-10T21:37:27.190Z,99968.05
2018-04-10T21:39:53.151Z,99960.28
2018-04-10T21:42:19.104Z,99955.75
2018-04-10T21:44:45.075Z,99949.59
2018-04-10T21:47:11.039Z,99942.59
2018-04-10T21:49:37.016Z,99956.45
2018-04-10T21:52:02.992Z,99974.53
2018-04-10T21:54:28.927Z,99973.58
2018-04-10T21:56:54.882Z,99983.64
2018-04-10T21:59:20.815Z,99996.03
2018-04-10T22:01:46.796Z,100006.85
2018-04-10T22:04:12.757Z,100006.25
2018-04-10T22:06:38.687Z,100021.13
2018-04-10T22:09:04.708Z,100036.41
2018-04-10T22:11:30.650Z,100041.09
2018-04-10T22:13:56.624Z,100033.02
2018-04-10T22:16:23.616Z,100029.46
2018-04-10T22:18:49.568Z,100014.94
2018-04-10T22:21:15.511Z,100004.62
2018-04-10T22:23:41.491Z,99974.34
2018-04-10T22:26:07.452Z,99943.97
2018-04-10T22:28:33.403Z,99925.58
2018-04-10T22:30:59.364Z,99917.81
2018-04-10T22:33:25.424Z,99936.90
2018-04-10T22:35:51.332Z,99946.64
2018-04-10T22:38:17.309Z,99969.25
2018-04-10T22:40:43.251Z,99981.98
2018-04-10T22:43:09.212Z,99977.60
2018-04-10T22:45:35.376Z,99974.37
2018-04-10T22:48:01.358Z,99971.98
2018-04-10T22:50:27.381Z,99972.33
2018-04-10T22:52:53.334Z,99983.77
2018-04-10T22:55:19.295Z,99992.79
2018-04-10T22:57:45.257Z,99996.72
2018-04-10T23:00:11.204Z,99996.31
2018-04-10T23:02:37.182Z,100008.61
2018-04-10T23:05:03.132Z,100007.28
2018-04-10T23:07:29.078Z,100003.89
2018-04-10T23:09:55.068Z,99996.79
2018-04-10T23:12:21.015Z,99995.97
2018-04-10T23:14:46.981Z,99995.66
2018-04-10T23:17:12.928Z,99997.39
2018-04-10T23:19:38.879Z,99997.98
2018-04-10T23:22:04.812Z,99997.04
2018-04-10T23:24:30.765Z,99999.20
2018-04-10T23:26:56.708Z,99998.63
2018-04-10T23:29:22.651Z,99987.73
2018-04-10T23:31:48.622Z,99988.16
2018-04-10T23:34:14.567Z,99985.77
2018-04-10T23:36:40.600Z,99988.16
2018-04-10T23:39:06.535Z,99981.22
2018-04-10T23:41:32.513Z,99983.30
2018-04-10T23:43:58.500Z,99986.19
2018-04-10T23:46:24.537Z,99988.23
2018-04-10T23:48:50.476Z,99988.58
2018-04-10T23:51:16.409Z,99993.67
2018-04-10T23:53:42.345Z,99996.25
2018-04-10T23:56:08.288Z,99997.97
2018-04-10T23:58:34.252Z,99998.64
